Rutland, SD (57057)

5:43 PM CDT on July 12, 2014 (GMT -0500)
Madison Municipal (KMDS) Elev 1716 ft | 44.01 °N, 97.08 °W | Change Station

Current weather conditions updated 13 minutes ago

Clear
Clear
77 °F
Feels Like 77 °F
N
6
Wind Variable Wind from NNW

Tomorrow is forecast to be nearly the same temperature as today.

Today
High -- | Low -- °F
--% Chance of Precip.
Yesterday
High -- | Low -- °F
Precip. -- in
5:56 AM 9:10 PM
Full, 100% visible
Pressure 30.04 in
Visibility 10.0 miles
Clouds Clear
Dew Point 68 °F
Humidity 74%
Rainfall 0.08 in
Snow Depth Not available.
UV 5 out of 12
Pollen .60 out of 12
Air Quality Not available.
Flu Activity Sporadic
METAR KMDS 122230Z AUTO 33005KT 10SM CLR 25/20 A3004 RMK AO2

More Conditions Fewer Conditions

Pressure 30.04 in
Visibility 10.0 miles
Clouds Clear
Dew Point 68 °F
Humidity 74%
Rainfall 0.08 in
Snow Depth Not available.
UV 5 out of 12
Pollen .60 out of 12
Air Quality Not available.
Flu Activity Sporadic
METAR KMDS 122230Z AUTO 33005KT 10SM CLR 25/20 A3004 RMK AO2

More Conditions Fewer Conditions

10-Day Weather Forecast

Almanac

Astronomy

Jul. 12, 2014 Rise Set
Actual Time 5:56 AM CDT 9:10 PM CDT
Civil Twilight 5:20 AM CDT 9:45 PM CDT
Nautical Twilight 4:35 AM CDT 10:31 PM CDT
Astronomical Twilight 3:38 AM CDT 11:26 PM CDT
Moon 9:08 PM CDT 6:20 AM CDT
Length of Visible Light 16h 24m
Length of Day
15h 14m
Tomorrow will be 1m 26s shorter.
Full, 100% of the Moon is Illuminated
Today
Full
Jul 18
Last Quarter
Jul 26
New
Aug 3
First Quarter
Aug 10
Full

Today's Extremes

State Highs State Lows

Community

WunderPhotos

Upload Photos

1,732,990 photos uploaded!

Nearby

Snow Depth

Station Depth Elevation
Blind Park 0 in 6890 ft

Earthquake Activity

City Distance Mag. Time & Date
No recent earthquake activity has been reported nearby.
Minimum magnitude displayed is 2.5.

Coastal Water Temperatures

Place Temperature
No Stations Reporting

Nearby Weather Stations

Station Location Temp. Heat Index Dew Point Humidity Wind Precip. Elev Updated Type
Valley View, Brookings, SD, Brookings, SD 78.6 °F 81 °F 68 °F 69% NW  at  4.6 mph 0.00 in / hr 1601 ft 5:43 PM CDT Rapid Fire
Indian Hills, Brookings, SD 78.5 °F 81 °F 70 °F 74% NNW  at  0.0 mph 0.00 in / hr 1650 ft 5:40 PM CDT Normal
Volga, SD 79.5 °F 82 °F 66 °F 63% WNW  at  6.0 mph 0.00 in / hr 1655 ft 5:41 PM CDT Normal
Neighborhood, Brookings, SD 79.3 °F 82 °F 68 °F 67% SSW  at  0.0 mph 0.00 in / hr 1627 ft 5:41 PM CDT Rapid Fire
Brown Farm LTD., Arlington, SD 79.1 °F 81 °F 68 °F 69% NW  at  1.0 mph 0.00 in / hr 1808 ft 5:43 PM CDT Rapid Fire

Show More Stations Show Fewer Stations